Terminal Aerodrome Forecast
Issued by NWS Dodge City, KS

Home | Current Version | Previous Version | Graphics & Text | Print | Product List | Glossary Off
Versions: 1 2 3 4 5 6 7 8 9 10 11 12 13 14 15 16 17 18 19 20 21 22 23

000
FTUS43 KDDC 261736
TAFDDC
TAF
KDDC 261736Z 2618/2718 13008KT P6SM SCT250
     FM262200 VRB20G30KT 3SM TSRA BKN040CB
     FM270000 14013G22KT P6SM BKN250
     FM270400 17015G24KT P6SM SCT003 WS020/17045KT
     FM270900 18015G23KT 5SM BR BKN040
     FM271100 19010KT 3SM BR SCT150=

USA.gov is the U.S. government's official web portal to all federal, state and local government web resources and services.